logo
Search for airport 
image banner adimage banner adimage banner ad
image banner ad

YOKE - Oakvale Airport

Located in Galilee, Australia

ICAO - YOKE, IATA -

Data provided by Airmate  

General information

Coordinates: S22°17'56" E145°59'1"
Elevation is 947 feet MSL.
Magnetic variation is 8° East
View others Airports in Queensland

Operational data

Special qualification required
Current time UTC:
Current local time:
Weather at : - ( 0 km )
METAR: SUMU 130245Z 00000KT 1000 R19/0400U R25/P2000N BR NSC 02/02 Q1035 TEMPO FG
View NOTAMs / SUP AIP / TFR affecting this airport [VIEW]
Communications frequencies: [VIEW]

Runways:

RWY identifierQFULength (ft)Width (ft)SurfaceLDA (ft)
11113°372870DIRT
29293°372870DIRT

Airport contact information

Address: Galilee Australia

Satellite view of YOKE